»·PEaware :: N714TW KBUR-KFUL

N714TW :: KBUR-KFUL

FLIGHT INFORMATION

Flight Status: Arrived
Operator: Privately registered:
United States
More flights under this callsign
Pilot: Peter S. (23284)
Aircraft: CESSNA T210 TURBO CENTURION
(T210)
More flights by this aircraft type
Origin: KBUR Bob Hope-Burbank
United States
Destination: KFUL Fullerton Mun
United States
More flights between these airports :: More routes between these airports
Route: DARTS EMT
File this flight plan on PilotEdge
Remarks: CAT9
Altitude:
(Current/Filed)
3,500ft
Speed:
(Current/Filed)
140kts
Departed: 10-Feb-19 06:12 PM
Arrived: 10-Feb-19 06:28 PM
Distance/Time
Traveled:
27nm/0:16
Distance/Time
To Go:
Arrived

Flight Plot

Page will automatically refresh every two minutes.

Flight plan parsing failed; only flown route is shown


Map Options




Map Legend


Flown Route
Filed Route
Departure Airport
Arrival Airport
Navaid (VOR, NDB)
Fix

Horizontal Profiles

Position Reports

Time Latitude Longitude Heading Altitude Ground
Speed
10-Feb-19 17:51 34.200227 -118.358767 255 781ft 0kts
10-Feb-19 17:52 34.200227 -118.358767 255 781ft 0kts
10-Feb-19 17:53 34.200227 -118.358767 255 781ft 0kts
10-Feb-19 17:54 34.200227 -118.358767 255 781ft 0kts
10-Feb-19 17:55 34.200227 -118.358767 255 781ft 0kts
10-Feb-19 17:56 34.200227 -118.358767 255 781ft 0kts
10-Feb-19 17:57 34.200227 -118.358767 255 781ft 0kts
10-Feb-19 17:58 34.200227 -118.358767 255 781ft 0kts
10-Feb-19 17:59 34.200227 -118.358767 255 781ft 0kts
10-Feb-19 18:00 34.200227 -118.358767 255 781ft 0kts
10-Feb-19 18:01 34.200227 -118.358767 255 781ft 0kts
10-Feb-19 18:03 34.200227 -118.358767 255 781ft 0kts
10-Feb-19 18:04 34.200227 -118.358767 255 781ft 0kts
10-Feb-19 18:05 34.200227 -118.358767 255 781ft 0kts
10-Feb-19 18:06 34.202471 -118.359649 18 781ft 14kts
10-Feb-19 18:07 34.207451 -118.360238 347 781ft 23kts
10-Feb-19 18:08 34.211529 -118.361184 36 781ft 0kts
10-Feb-19 18:09 34.211530 -118.361184 37 781ft 0kts
10-Feb-19 18:10 34.211530 -118.361184 37 781ft 0kts
10-Feb-19 18:11 34.211533 -118.361181 36 781ft 1kts
10-Feb-19 18:12 34.195720 -118.355737 161 1183ft 90kts
10-Feb-19 18:13 34.180640 -118.334332 99 2245ft 95kts
10-Feb-19 18:14 34.166773 -118.296508 124 2303ft 142kts
10-Feb-19 18:15 34.150734 -118.252124 106 2333ft 139kts
10-Feb-19 18:16 34.138271 -118.204611 106 2322ft 141kts
10-Feb-19 18:17 34.125145 -118.157154 110 2320ft 141kts
10-Feb-19 18:18 34.110911 -118.110452 108 2277ft 144kts
10-Feb-19 18:19 34.097318 -118.064950 109 2307ft 141kts
10-Feb-19 18:20 34.074433 -118.029746 168 2309ft 141kts
10-Feb-19 18:21 34.036614 -118.020115 167 2405ft 137kts
10-Feb-19 18:21 34.005630 -118.011737 165 2420ft 140kts
10-Feb-19 18:22 33.967855 -118.003273 168 2442ft 130kts
10-Feb-19 18:24 33.927215 -117.995905 168 2124ft 129kts
10-Feb-19 18:24 33.899819 -117.990123 166 1333ft 107kts
10-Feb-19 18:25 33.883652 -117.978512 81 793ft 74kts
10-Feb-19 18:26 33.875346 -117.964852 225 466ft 79kts
10-Feb-19 18:27 33.871475 -117.981181 174 100ft 7kts
10-Feb-19 18:28 33.871380 -117.981160 163 100ft 0kts
10-Feb-19 18:29 33.871380 -117.981160 163 100ft 0kts
10-Feb-19 18:30 33.870722 -117.981935 269 100ft 0kts
10-Feb-19 18:31 33.870722 -117.981935 269 100ft 0kts
10-Feb-19 18:32 33.870722 -117.981935 269 100ft 0kts
10-Feb-19 18:33 33.870722 -117.981935 269 100ft 0kts
10-Feb-19 18:34 33.870722 -117.981935 269 100ft 0kts
10-Feb-19 18:35 33.870722 -117.981935 269 100ft 0kts
10-Feb-19 18:36 33.870722 -117.981935 269 100ft 0kts
10-Feb-19 18:37 33.870722 -117.981935 269 100ft 0kts
10-Feb-19 18:38 33.870722 -117.981935 269 100ft 0kts
10-Feb-19 18:39 33.870722 -117.981935 269 100ft 0kts
10-Feb-19 18:40 33.870722 -117.981935 269 100ft 0kts
10-Feb-19 18:41 33.870722 -117.981935 269 100ft 0kts

Navigation Log

Ident Type
Flight plan parsing failed, navigation log unavailable